sensor_id;sensor_type;location;lat;lon;timestamp;pressure;altitude;pressure_sealevel;temperature;humidity
37852;BME280;23691;52.486;4.650;2023-07-16T00:01:52;100649.59;;;21.10;53.80
37852;BME280;23691;52.486;4.650;2023-07-16T00:04:17;100645.47;;;21.08;53.77
37852;BME280;23691;52.486;4.650;2023-07-16T00:06:43;100648.78;;;21.10;53.70
37852;BME280;23691;52.486;4.650;2023-07-16T00:09:08;100635.78;;;21.12;54.00
37852;BME280;23691;52.486;4.650;2023-07-16T00:11:36;100644.97;;;21.11;53.92
37852;BME280;23691;52.486;4.650;2023-07-16T00:14:04;100653.13;;;21.11;53.88
37852;BME280;23691;52.486;4.650;2023-07-16T00:16:31;100643.94;;;21.12;53.44
37852;BME280;23691;52.486;4.650;2023-07-16T00:18:59;100643.69;;;21.13;53.47
37852;BME280;23691;52.486;4.650;2023-07-16T00:21:25;100638.50;;;21.12;53.33
37852;BME280;23691;52.486;4.650;2023-07-16T00:23:50;100645.56;;;21.13;53.24
37852;BME280;23691;52.486;4.650;2023-07-16T00:26:16;100648.53;;;21.11;53.44
37852;BME280;23691;52.486;4.650;2023-07-16T00:28:41;100631.97;;;21.13;54.26
37852;BME280;23691;52.486;4.650;2023-07-16T00:31:07;100638.25;;;21.13;54.21
37852;BME280;23691;52.486;4.650;2023-07-16T00:33:32;100647.59;;;21.17;54.35
37852;BME280;23691;52.486;4.650;2023-07-16T00:35:58;100657.16;;;21.20;54.36
37852;BME280;23691;52.486;4.650;2023-07-16T00:38:23;100642.72;;;21.19;54.43
37852;BME280;23691;52.486;4.650;2023-07-16T00:40:49;100636.44;;;21.19;54.49
37852;BME280;23691;52.486;4.650;2023-07-16T00:43:14;100651.13;;;21.18;54.22
37852;BME280;23691;52.486;4.650;2023-07-16T00:45:40;100629.13;;;21.19;53.79
37852;BME280;23691;52.486;4.650;2023-07-16T00:48:07;100631.84;;;21.19;54.07
37852;BME280;23691;52.486;4.650;2023-07-16T00:50:36;100636.56;;;21.24;53.70
37852;BME280;23691;52.486;4.650;2023-07-16T00:53:07;100642.34;;;21.28;53.49
37852;BME280;23691;52.486;4.650;2023-07-16T00:55:34;100639.63;;;21.28;53.68
37852;BME280;23691;52.486;4.650;2023-07-16T00:58:03;100637.72;;;21.28;54.32
37852;BME280;23691;52.486;4.650;2023-07-16T01:00:40;100647.69;;;21.22;54.21
37852;BME280;23691;52.486;4.650;2023-07-16T01:03:08;100637.75;;;21.16;54.55
37852;BME280;23691;52.486;4.650;2023-07-16T01:05:38;100650.03;;;21.19;54.77
37852;BME280;23691;52.486;4.650;2023-07-16T01:08:08;100660.09;;;21.18;54.70
37852;BME280;23691;52.486;4.650;2023-07-16T01:10:35;100645.69;;;21.18;54.27
37852;BME280;23691;52.486;4.650;2023-07-16T01:13:01;100650.19;;;21.12;54.15
37852;BME280;23691;52.486;4.650;2023-07-16T01:15:27;100657.53;;;21.12;54.57
37852;BME280;23691;52.486;4.650;2023-07-16T01:17:52;100652.19;;;21.17;54.77
37852;BME280;23691;52.486;4.650;2023-07-16T01:20:17;100661.91;;;21.13;55.15
37852;BME280;23691;52.486;4.650;2023-07-16T01:25:34;100660.25;;;21.12;55.17
37852;BME280;23691;52.486;4.650;2023-07-16T01:30:40;100699.75;;;21.14;54.78
37852;BME280;23691;52.486;4.650;2023-07-16T01:33:12;100655.38;;;21.14;54.78
37852;BME280;23691;52.486;4.650;2023-07-16T01:35:42;100652.66;;;21.14;54.55
37852;BME280;23691;52.486;4.650;2023-07-16T01:38:10;100664.63;;;21.13;54.39
37852;BME280;23691;52.486;4.650;2023-07-16T01:40:35;100659.06;;;21.08;54.35
37852;BME280;23691;52.486;4.650;2023-07-16T01:43:01;100659.28;;;21.06;54.17
37852;BME280;23691;52.486;4.650;2023-07-16T01:45:26;100666.41;;;21.07;54.77
37852;BME280;23691;52.486;4.650;2023-07-16T01:48:29;100651.50;;;21.10;54.51
37852;BME280;23691;52.486;4.650;2023-07-16T01:50:55;100661.09;;;21.00;55.24
37852;BME280;23691;52.486;4.650;2023-07-16T01:53:20;100665.44;;;21.01;55.36
37852;BME280;23691;52.486;4.650;2023-07-16T01:55:47;100651.84;;;21.01;55.59
37852;BME280;23691;52.486;4.650;2023-07-16T01:58:12;100664.41;;;21.02;55.23
37852;BME280;23691;52.486;4.650;2023-07-16T02:00:38;100651.63;;;21.03;55.21
37852;BME280;23691;52.486;4.650;2023-07-16T02:03:04;100665.56;;;21.07;54.63
37852;BME280;23691;52.486;4.650;2023-07-16T02:05:29;100649.81;;;21.09;54.20
37852;BME280;23691;52.486;4.650;2023-07-16T02:07:55;100653.03;;;21.06;54.04
37852;BME280;23691;52.486;4.650;2023-07-16T02:10:20;100646.41;;;21.01;54.36
37852;BME280;23691;52.486;4.650;2023-07-16T02:12:45;100646.91;;;20.98;54.66
37852;BME280;23691;52.486;4.650;2023-07-16T02:15:11;100637.91;;;20.98;55.12
37852;BME280;23691;52.486;4.650;2023-07-16T02:17:36;100651.28;;;20.99;55.62
37852;BME280;23691;52.486;4.650;2023-07-16T02:20:02;100654.56;;;21.01;56.11
37852;BME280;23691;52.486;4.650;2023-07-16T02:22:30;100645.59;;;21.01;55.55
37852;BME280;23691;52.486;4.650;2023-07-16T02:24:56;100649.97;;;21.02;55.67
37852;BME280;23691;52.486;4.650;2023-07-16T02:27:21;100647.81;;;21.04;55.44
37852;BME280;23691;52.486;4.650;2023-07-16T02:29:47;100660.38;;;21.05;55.32
37852;BME280;23691;52.486;4.650;2023-07-16T02:32:12;100668.88;;;21.09;55.48
37852;BME280;23691;52.486;4.650;2023-07-16T02:34:38;100658.25;;;21.07;55.09
37852;BME280;23691;52.486;4.650;2023-07-16T02:37:03;100652.94;;;21.00;55.02
37852;BME280;23691;52.486;4.650;2023-07-16T02:39:28;100646.06;;;20.98;55.12
37852;BME280;23691;52.486;4.650;2023-07-16T02:41:54;100658.38;;;21.00;55.41
37852;BME280;23691;52.486;4.650;2023-07-16T02:44:19;100645.69;;;20.94;55.56
37852;BME280;23691;52.486;4.650;2023-07-16T02:46:45;100656.84;;;20.93;56.29
37852;BME280;23691;52.486;4.650;2023-07-16T02:49:10;100664.88;;;20.99;56.33
37852;BME280;23691;52.486;4.650;2023-07-16T02:51:35;100662.63;;;20.96;56.20
37852;BME280;23691;52.486;4.650;2023-07-16T02:54:01;100659.28;;;20.94;56.39
37852;BME280;23691;52.486;4.650;2023-07-16T02:56:26;100656.00;;;20.92;56.32
37852;BME280;23691;52.486;4.650;2023-07-16T02:58:52;100657.66;;;20.93;56.67
37852;BME280;23691;52.486;4.650;2023-07-16T03:01:17;100653.53;;;20.91;56.54
37852;BME280;23691;52.486;4.650;2023-07-16T03:03:42;100660.03;;;20.90;57.04
37852;BME280;23691;52.486;4.650;2023-07-16T03:06:08;100669.84;;;20.91;57.29
37852;BME280;23691;52.486;4.650;2023-07-16T03:08:34;100691.94;;;20.94;57.27
37852;BME280;23691;52.486;4.650;2023-07-16T03:11:01;100694.44;;;20.96;57.29
37852;BME280;23691;52.486;4.650;2023-07-16T03:13:27;100695.94;;;20.92;57.06
37852;BME280;23691;52.486;4.650;2023-07-16T03:15:52;100687.22;;;20.90;57.30
37852;BME280;23691;52.486;4.650;2023-07-16T03:18:18;100692.66;;;20.90;57.06
37852;BME280;23691;52.486;4.650;2023-07-16T03:20:46;100691.38;;;20.92;56.71
37852;BME280;23691;52.486;4.650;2023-07-16T03:23:12;100684.41;;;20.85;57.07
37852;BME280;23691;52.486;4.650;2023-07-16T03:25:37;100702.56;;;20.84;56.94
37852;BME280;23691;52.486;4.650;2023-07-16T03:28:03;100676.81;;;20.87;57.35
37852;BME280;23691;52.486;4.650;2023-07-16T03:30:30;100699.41;;;20.87;57.62
37852;BME280;23691;52.486;4.650;2023-07-16T03:32:55;100677.88;;;20.86;57.55
37852;BME280;23691;52.486;4.650;2023-07-16T03:35:21;100697.50;;;20.88;57.92
37852;BME280;23691;52.486;4.650;2023-07-16T03:37:46;100697.50;;;20.88;58.05
37852;BME280;23691;52.486;4.650;2023-07-16T03:40:16;100693.72;;;20.89;57.80
37852;BME280;23691;52.486;4.650;2023-07-16T03:42:43;100706.97;;;20.85;57.67
37852;BME280;23691;52.486;4.650;2023-07-16T03:45:09;100718.66;;;20.86;57.56
37852;BME280;23691;52.486;4.650;2023-07-16T03:47:35;100708.88;;;20.85;58.17
37852;BME280;23691;52.486;4.650;2023-07-16T03:50:01;100723.50;;;20.84;58.40
37852;BME280;23691;52.486;4.650;2023-07-16T03:52:26;100710.50;;;20.86;58.59
37852;BME280;23691;52.486;4.650;2023-07-16T03:54:52;100714.53;;;20.83;58.85
37852;BME280;23691;52.486;4.650;2023-07-16T03:57:17;100705.78;;;20.81;59.03
37852;BME280;23691;52.486;4.650;2023-07-16T03:59:43;100714.16;;;20.79;59.65
37852;BME280;23691;52.486;4.650;2023-07-16T04:02:08;100709.78;;;20.78;59.77
37852;BME280;23691;52.486;4.650;2023-07-16T04:04:36;100716.06;;;20.79;60.32
37852;BME280;23691;52.486;4.650;2023-07-16T04:07:01;100722.19;;;20.74;59.94
37852;BME280;23691;52.486;4.650;2023-07-16T04:09:27;100710.97;;;20.71;59.36
37852;BME280;23691;52.486;4.650;2023-07-16T04:11:52;100712.16;;;20.75;59.59
37852;BME280;23691;52.486;4.650;2023-07-16T04:14:17;100720.06;;;20.76;59.52
37852;BME280;23691;52.486;4.650;2023-07-16T04:16:43;100712.16;;;20.75;59.35
37852;BME280;23691;52.486;4.650;2023-07-16T04:19:08;100739.09;;;20.76;59.61
37852;BME280;23691;52.486;4.650;2023-07-16T04:21:34;100716.75;;;20.74;59.93
37852;BME280;23691;52.486;4.650;2023-07-16T04:24:03;100739.09;;;20.76;59.50
37852;BME280;23691;52.486;4.650;2023-07-16T04:26:29;100722.91;;;20.82;59.95
37852;BME280;23691;52.486;4.650;2023-07-16T04:28:54;100723.97;;;20.80;59.90
37852;BME280;23691;52.486;4.650;2023-07-16T04:31:19;100715.13;;;20.85;60.00
37852;BME280;23691;52.486;4.650;2023-07-16T04:33:45;100743.13;;;20.86;60.18
37852;BME280;23691;52.486;4.650;2023-07-16T04:36:13;100730.38;;;20.86;60.95
37852;BME280;23691;52.486;4.650;2023-07-16T04:38:41;100728.59;;;20.80;61.90
37852;BME280;23691;52.486;4.650;2023-07-16T04:41:07;100723.38;;;20.78;62.03
37852;BME280;23691;52.486;4.650;2023-07-16T04:43:32;100724.09;;;20.74;62.60
37852;BME280;23691;52.486;4.650;2023-07-16T04:45:58;100740.06;;;20.70;62.74
37852;BME280;23691;52.486;4.650;2023-07-16T04:48:38;100734.47;;;20.77;61.94
37852;BME280;23691;52.486;4.650;2023-07-16T04:51:04;100751.53;;;20.72;61.83
37852;BME280;23691;52.486;4.650;2023-07-16T04:53:29;100746.09;;;20.72;61.87
37852;BME280;23691;52.486;4.650;2023-07-16T04:55:55;100756.59;;;20.69;61.88
37852;BME280;23691;52.486;4.650;2023-07-16T04:58:24;100765.81;;;20.68;62.15
37852;BME280;23691;52.486;4.650;2023-07-16T05:00:51;100764.13;;;20.67;61.98
37852;BME280;23691;52.486;4.650;2023-07-16T05:03:19;100773.38;;;20.66;62.11
37852;BME280;23691;52.486;4.650;2023-07-16T05:05:45;100764.75;;;20.69;62.24
37852;BME280;23691;52.486;4.650;2023-07-16T05:08:13;100772.75;;;20.64;62.25
37852;BME280;23691;52.486;4.650;2023-07-16T05:10:39;100770.53;;;20.61;62.16
37852;BME280;23691;52.486;4.650;2023-07-16T05:13:07;100775.97;;;20.61;62.48
37852;BME280;23691;52.486;4.650;2023-07-16T05:15:32;100772.63;;;20.58;62.59
37852;BME280;23691;52.486;4.650;2023-07-16T05:17:58;100771.41;;;20.54;62.91
37852;BME280;23691;52.486;4.650;2023-07-16T05:20:28;100779.81;;;20.53;63.04
37852;BME280;23691;52.486;4.650;2023-07-16T05:22:56;100780.81;;;20.70;62.69
37852;BME280;23691;52.486;4.650;2023-07-16T05:25:28;100777.97;;;20.65;62.87
37852;BME280;23691;52.486;4.650;2023-07-16T05:28:04;100784.13;;;20.42;63.42
37852;BME280;23691;52.486;4.650;2023-07-16T05:30:37;100781.06;;;20.38;63.95
37852;BME280;23691;52.486;4.650;2023-07-16T05:33:02;100780.22;;;20.38;63.86
37852;BME280;23691;52.486;4.650;2023-07-16T05:35:33;100773.53;;;20.52;63.78
37852;BME280;23691;52.486;4.650;2023-07-16T05:38:01;100784.94;;;20.61;63.88
37852;BME280;23691;52.486;4.650;2023-07-16T05:40:26;100807.16;;;20.58;63.57
37852;BME280;23691;52.486;4.650;2023-07-16T05:42:52;100808.19;;;20.57;63.90
37852;BME280;23691;52.486;4.650;2023-07-16T05:45:17;100802.19;;;20.67;63.25
37852;BME280;23691;52.486;4.650;2023-07-16T05:47:48;100787.69;;;20.73;62.79
37852;BME280;23691;52.486;4.650;2023-07-16T05:50:15;100813.00;;;20.85;62.53
37852;BME280;23691;52.486;4.650;2023-07-16T05:52:43;100796.31;;;20.82;62.02
37852;BME280;23691;52.486;4.650;2023-07-16T05:55:09;100807.44;;;20.80;62.26
37852;BME280;23691;52.486;4.650;2023-07-16T05:57:34;100810.72;;;20.82;62.32
37852;BME280;23691;52.486;4.650;2023-07-16T06:00:02;100826.44;;;20.68;62.73
37852;BME280;23691;52.486;4.650;2023-07-16T06:02:34;100831.19;;;20.73;62.44
37852;BME280;23691;52.486;4.650;2023-07-16T06:05:07;100832.47;;;20.70;62.29
37852;BME280;23691;52.486;4.650;2023-07-16T06:07:38;100826.91;;;20.65;62.42
37852;BME280;23691;52.486;4.650;2023-07-16T06:10:04;100826.78;;;20.60;62.29
37852;BME280;23691;52.486;4.650;2023-07-16T06:12:29;100839.94;;;20.87;62.13
37852;BME280;23691;52.486;4.650;2023-07-16T06:14:55;100820.09;;;20.86;62.13
37852;BME280;23691;52.486;4.650;2023-07-16T06:17:20;100825.91;;;21.01;62.45
37852;BME280;23691;52.486;4.650;2023-07-16T06:19:55;100818.09;;;20.93;62.35
37852;BME280;23691;52.486;4.650;2023-07-16T06:22:22;100837.78;;;20.77;62.87
37852;BME280;23691;52.486;4.650;2023-07-16T06:24:48;100845.25;;;20.82;63.28
37852;BME280;23691;52.486;4.650;2023-07-16T06:27:16;100838.66;;;20.77;63.14
37852;BME280;23691;52.486;4.650;2023-07-16T06:29:41;100849.78;;;20.57;63.92
37852;BME280;23691;52.486;4.650;2023-07-16T06:32:19;100853.88;;;20.48;64.79
37852;BME280;23691;52.486;4.650;2023-07-16T06:34:46;100854.56;;;20.44;65.04
37852;BME280;23691;52.486;4.650;2023-07-16T06:37:12;100854.56;;;20.44;65.07
37852;BME280;23691;52.486;4.650;2023-07-16T06:39:37;100853.81;;;20.36;65.24
37852;BME280;23691;52.486;4.650;2023-07-16T06:42:02;100856.53;;;20.36;65.71
37852;BME280;23691;52.486;4.650;2023-07-16T06:44:28;100868.59;;;20.41;65.91
37852;BME280;23691;52.486;4.650;2023-07-16T06:46:53;100863.06;;;20.47;65.93
37852;BME280;23691;52.486;4.650;2023-07-16T06:49:19;100868.63;;;20.71;65.47
37852;BME280;23691;52.486;4.650;2023-07-16T06:51:44;100867.56;;;21.02;64.92
37852;BME280;23691;52.486;4.650;2023-07-16T06:54:10;100890.16;;;21.26;64.51
37852;BME280;23691;52.486;4.650;2023-07-16T06:56:35;100882.47;;;21.23;64.03
37852;BME280;23691;52.486;4.650;2023-07-16T06:59:01;100882.13;;;21.19;64.34
37852;BME280;23691;52.486;4.650;2023-07-16T07:01:26;100883.78;;;21.20;63.29
37852;BME280;23691;52.486;4.650;2023-07-16T07:03:53;100895.38;;;21.28;62.81
37852;BME280;23691;52.486;4.650;2023-07-16T07:06:18;100886.66;;;21.37;61.99
37852;BME280;23691;52.486;4.650;2023-07-16T07:08:44;100871.31;;;21.55;61.70
37852;BME280;23691;52.486;4.650;2023-07-16T07:11:09;100888.44;;;21.43;62.21
37852;BME280;23691;52.486;4.650;2023-07-16T07:13:37;100884.28;;;21.29;62.66
37852;BME280;23691;52.486;4.650;2023-07-16T07:16:03;100888.78;;;21.35;62.50
37852;BME280;23691;52.486;4.650;2023-07-16T07:18:28;100887.66;;;21.67;61.85
37852;BME280;23691;52.486;4.650;2023-07-16T07:20:54;100887.63;;;21.90;61.50
37852;BME280;23691;52.486;4.650;2023-07-16T07:23:19;100886.66;;;22.08;61.17
37852;BME280;23691;52.486;4.650;2023-07-16T07:25:51;100909.06;;;21.86;61.70
37852;BME280;23691;52.486;4.650;2023-07-16T07:28:18;100907.88;;;21.71;61.94
37852;BME280;23691;52.486;4.650;2023-07-16T07:30:44;100905.41;;;21.69;62.26
37852;BME280;23691;52.486;4.650;2023-07-16T07:33:10;100902.66;;;21.93;62.26
37852;BME280;23691;52.486;4.650;2023-07-16T07:35:36;100905.34;;;22.16;61.58
37852;BME280;23691;52.486;4.650;2023-07-16T07:38:01;100915.66;;;22.38;61.39
37852;BME280;23691;52.486;4.650;2023-07-16T07:40:27;100929.69;;;22.58;60.52
37852;BME280;23691;52.486;4.650;2023-07-16T07:42:52;100919.69;;;22.64;59.45
37852;BME280;23691;52.486;4.650;2023-07-16T07:45:18;100930.84;;;22.91;58.83
37852;BME280;23691;52.486;4.650;2023-07-16T07:47:43;100928.59;;;23.00;57.94
37852;BME280;23691;52.486;4.650;2023-07-16T07:50:09;100939.75;;;22.98;57.69
37852;BME280;23691;52.486;4.650;2023-07-16T07:52:34;100923.81;;;23.07;57.43
37852;BME280;23691;52.486;4.650;2023-07-16T07:55:00;100928.47;;;23.06;57.40
37852;BME280;23691;52.486;4.650;2023-07-16T07:57:25;100928.19;;;23.08;57.52
37852;BME280;23691;52.486;4.650;2023-07-16T07:59:50;100942.69;;;23.25;56.94
37852;BME280;23691;52.486;4.650;2023-07-16T08:02:24;100925.00;;;23.45;55.74
37852;BME280;23691;52.486;4.650;2023-07-16T08:04:53;100935.34;;;23.43;55.39
37852;BME280;23691;52.486;4.650;2023-07-16T08:07:19;100935.09;;;23.27;55.46
37852;BME280;23691;52.486;4.650;2023-07-16T08:09:45;100942.50;;;23.15;55.36
37852;BME280;23691;52.486;4.650;2023-07-16T08:12:11;100953.25;;;23.05;55.19
37852;BME280;23691;52.486;4.650;2023-07-16T08:14:36;100945.16;;;23.10;55.32
37852;BME280;23691;52.486;4.650;2023-07-16T08:17:02;100966.94;;;23.22;55.23
37852;BME280;23691;52.486;4.650;2023-07-16T08:19:27;100962.38;;;23.27;54.68
37852;BME280;23691;52.486;4.650;2023-07-16T08:21:52;100959.78;;;23.21;55.19
37852;BME280;23691;52.486;4.650;2023-07-16T08:24:18;100960.66;;;23.55;54.57
37852;BME280;23691;52.486;4.650;2023-07-16T08:26:44;100961.09;;;23.64;54.62
37852;BME280;23691;52.486;4.650;2023-07-16T08:29:10;100968.03;;;23.71;53.16
37852;BME280;23691;52.486;4.650;2023-07-16T08:31:35;100961.09;;;23.64;52.58
37852;BME280;23691;52.486;4.650;2023-07-16T08:34:00;100964.72;;;23.69;52.14
37852;BME280;23691;52.486;4.650;2023-07-16T08:36:26;100960.34;;;23.51;52.70
37852;BME280;23691;52.486;4.650;2023-07-16T08:38:51;100966.69;;;23.40;52.98
37852;BME280;23691;52.486;4.650;2023-07-16T08:41:17;100979.19;;;23.36;53.33
37852;BME280;23691;52.486;4.650;2023-07-16T08:43:45;100982.75;;;23.36;53.20
37852;BME280;23691;52.486;4.650;2023-07-16T08:46:12;100971.84;;;23.53;52.53
37852;BME280;23691;52.486;4.650;2023-07-16T08:48:37;100979.56;;;23.73;51.87
37852;BME280;23691;52.486;4.650;2023-07-16T08:51:03;100975.81;;;23.79;52.08
37852;BME280;23691;52.486;4.650;2023-07-16T08:53:30;100987.34;;;23.98;52.27
37852;BME280;23691;52.486;4.650;2023-07-16T08:55:55;100977.38;;;24.09;51.89
37852;BME280;23691;52.486;4.650;2023-07-16T08:58:23;100994.19;;;24.01;52.20
37852;BME280;23691;52.486;4.650;2023-07-16T09:00:49;100986.28;;;24.21;52.10
37852;BME280;23691;52.486;4.650;2023-07-16T09:03:14;100980.25;;;24.41;51.26
37852;BME280;23691;52.486;4.650;2023-07-16T09:05:46;100981.50;;;24.51;50.78
37852;BME280;23691;52.486;4.650;2023-07-16T09:08:11;100965.16;;;24.56;50.37
37852;BME280;23691;52.486;4.650;2023-07-16T09:10:40;100986.03;;;24.84;49.61
37852;BME280;23691;52.486;4.650;2023-07-16T09:13:05;100999.06;;;24.99;49.55
37852;BME280;23691;52.486;4.650;2023-07-16T09:15:31;101005.47;;;25.10;49.46
37852;BME280;23691;52.486;4.650;2023-07-16T09:17:56;100996.31;;;24.99;49.19
37852;BME280;23691;52.486;4.650;2023-07-16T09:20:22;100993.19;;;24.90;48.87
37852;BME280;23691;52.486;4.650;2023-07-16T09:22:53;100995.53;;;25.25;48.34
37852;BME280;23691;52.486;4.650;2023-07-16T09:25:24;100997.91;;;25.17;48.75
37852;BME280;23691;52.486;4.650;2023-07-16T09:27:50;101005.88;;;25.18;49.33
37852;BME280;23691;52.486;4.650;2023-07-16T09:30:15;101016.94;;;25.06;48.85
37852;BME280;23691;52.486;4.650;2023-07-16T09:32:41;101007.75;;;25.18;48.49
37852;BME280;23691;52.486;4.650;2023-07-16T09:35:16;101001.50;;;25.22;48.12
37852;BME280;23691;52.486;4.650;2023-07-16T09:37:42;101022.22;;;25.13;47.61
37852;BME280;23691;52.486;4.650;2023-07-16T09:40:09;101025.28;;;25.17;47.66
37852;BME280;23691;52.486;4.650;2023-07-16T09:42:42;101024.38;;;25.33;46.81
37852;BME280;23691;52.486;4.650;2023-07-16T09:45:18;101042.72;;;25.33;46.43
37852;BME280;23691;52.486;4.650;2023-07-16T09:47:44;101041.81;;;25.27;46.40
37852;BME280;23691;52.486;4.650;2023-07-16T09:50:10;101053.66;;;25.33;46.23
37852;BME280;23691;52.486;4.650;2023-07-16T09:52:39;101049.59;;;25.35;45.98
37852;BME280;23691;52.486;4.650;2023-07-16T09:55:09;101047.25;;;25.49;45.97
37852;BME280;23691;52.486;4.650;2023-07-16T09:57:40;101051.00;;;25.70;45.46
37852;BME280;23691;52.486;4.650;2023-07-16T10:00:08;101063.31;;;25.67;45.14
37852;BME280;23691;52.486;4.650;2023-07-16T10:02:40;101066.34;;;25.71;45.18
37852;BME280;23691;52.486;4.650;2023-07-16T10:05:19;101091.88;;;25.49;45.10
37852;BME280;23691;52.486;4.650;2023-07-16T10:07:59;101067.78;;;25.24;45.62
37852;BME280;23691;52.486;4.650;2023-07-16T10:10:44;101087.00;;;25.07;46.05
37852;BME280;23691;52.486;4.650;2023-07-16T10:13:12;101075.41;;;25.00;46.80
37852;BME280;23691;52.486;4.650;2023-07-16T10:15:38;101088.16;;;24.90;47.04
37852;BME280;23691;52.486;4.650;2023-07-16T10:18:03;101098.00;;;24.91;47.00
37852;BME280;23691;52.486;4.650;2023-07-16T10:20:36;101106.69;;;25.04;46.53
37852;BME280;23691;52.486;4.650;2023-07-16T10:23:15;101101.75;;;25.23;46.34
37852;BME280;23691;52.486;4.650;2023-07-16T10:25:58;101104.03;;;25.59;45.95
37852;BME280;23691;52.486;4.650;2023-07-16T10:28:23;101105.31;;;25.78;46.15
37852;BME280;23691;52.486;4.650;2023-07-16T10:30:49;101099.06;;;26.10;44.68
37852;BME280;23691;52.486;4.650;2023-07-16T10:33:15;101101.94;;;26.30;44.11
37852;BME280;23691;52.486;4.650;2023-07-16T10:35:47;101095.88;;;26.28;43.72
37852;BME280;23691;52.486;4.650;2023-07-16T10:38:12;101108.81;;;25.96;44.60
37852;BME280;23691;52.486;4.650;2023-07-16T10:40:42;101103.38;;;26.01;44.60
37852;BME280;23691;52.486;4.650;2023-07-16T10:43:08;101115.84;;;25.86;44.56
37852;BME280;23691;52.486;4.650;2023-07-16T10:45:33;101105.31;;;25.78;44.76
37852;BME280;23691;52.486;4.650;2023-07-16T10:48:01;101112.69;;;25.73;45.21
37852;BME280;23691;52.486;4.650;2023-07-16T10:50:27;101116.28;;;25.51;45.79
37852;BME280;23691;52.486;4.650;2023-07-16T10:52:56;101113.22;;;25.20;47.01
37852;BME280;23691;52.486;4.650;2023-07-16T10:55:26;101128.38;;;25.28;47.27
37852;BME280;23691;52.486;4.650;2023-07-16T10:57:52;101125.38;;;25.57;46.07
37852;BME280;23691;52.486;4.650;2023-07-16T11:00:20;101135.03;;;25.64;45.58
37852;BME280;23691;52.486;4.650;2023-07-16T11:02:46;101152.19;;;25.55;44.83
37852;BME280;23691;52.486;4.650;2023-07-16T11:05:19;101133.81;;;25.50;44.42
37852;BME280;23691;52.486;4.650;2023-07-16T11:07:48;101162.03;;;25.51;44.17
37852;BME280;23691;52.486;4.650;2023-07-16T11:10:19;101154.25;;;25.42;43.76
37852;BME280;23691;52.486;4.650;2023-07-16T11:12:52;101160.88;;;25.24;43.14
37852;BME280;23691;52.486;4.650;2023-07-16T11:15:18;101147.50;;;25.06;43.30
37852;BME280;23691;52.486;4.650;2023-07-16T11:17:51;101162.63;;;24.92;42.87
37852;BME280;23691;52.486;4.650;2023-07-16T11:20:49;101159.56;;;24.88;42.00
37852;BME280;23691;52.486;4.650;2023-07-16T11:23:53;101162.56;;;24.87;42.52
37852;BME280;23691;52.486;4.650;2023-07-16T11:26:33;101171.72;;;24.97;42.92
37852;BME280;23691;52.486;4.650;2023-07-16T11:29:52;101169.56;;;25.38;42.73
37852;BME280;23691;52.486;4.650;2023-07-16T11:32:46;101171.78;;;25.41;42.95
37852;BME280;23691;52.486;4.650;2023-07-16T11:35:41;101169.38;;;25.45;43.18
37852;BME280;23691;52.486;4.650;2023-07-16T11:38:23;101168.34;;;25.51;42.81
37852;BME280;23691;52.486;4.650;2023-07-16T11:40:51;101177.00;;;25.65;42.95
37852;BME280;23691;52.486;4.650;2023-07-16T11:43:59;101179.19;;;25.90;42.73
37852;BME280;23691;52.486;4.650;2023-07-16T11:46:40;101188.09;;;26.02;42.29
37852;BME280;23691;52.486;4.650;2023-07-16T11:49:05;101202.88;;;26.01;41.97
37852;BME280;23691;52.486;4.650;2023-07-16T11:51:31;101204.50;;;25.97;41.73
37852;BME280;23691;52.486;4.650;2023-07-16T11:53:57;101207.34;;;26.07;41.99
37852;BME280;23691;52.486;4.650;2023-07-16T11:56:25;101207.38;;;26.12;42.38
37852;BME280;23691;52.486;4.650;2023-07-16T11:58:51;101216.47;;;26.18;41.80
37852;BME280;23691;52.486;4.650;2023-07-16T12:01:16;101200.72;;;26.35;41.11
37852;BME280;23691;52.486;4.650;2023-07-16T12:03:41;101206.25;;;26.41;40.80
37852;BME280;23691;52.486;4.650;2023-07-16T12:06:08;101203.59;;;26.51;40.74
37852;BME280;23691;52.486;4.650;2023-07-16T12:08:33;101204.84;;;26.70;39.62
37852;BME280;23691;52.486;4.650;2023-07-16T12:10:59;101218.78;;;26.59;38.81
37852;BME280;23691;52.486;4.650;2023-07-16T12:13:24;101214.41;;;26.63;38.53
37852;BME280;23691;52.486;4.650;2023-07-16T12:15:50;101214.66;;;26.56;38.79
37852;BME280;23691;52.486;4.650;2023-07-16T12:18:15;101217.69;;;26.60;38.90
37852;BME280;23691;52.486;4.650;2023-07-16T12:20:41;101226.53;;;26.67;38.61
37852;BME280;23691;52.486;4.650;2023-07-16T12:23:08;101240.50;;;26.65;38.19
37852;BME280;23691;52.486;4.650;2023-07-16T12:25:37;101216.97;;;26.42;38.35
37852;BME280;23691;52.486;4.650;2023-07-16T12:28:05;101214.63;;;26.24;38.91
37852;BME280;23691;52.486;4.650;2023-07-16T12:30:30;101217.22;;;26.41;38.70
37852;BME280;23691;52.486;4.650;2023-07-16T12:32:56;101216.16;;;26.42;38.67
37852;BME280;23691;52.486;4.650;2023-07-16T12:35:21;101231.25;;;26.76;38.38
37852;BME280;23691;52.486;4.650;2023-07-16T12:37:47;101231.31;;;26.87;38.60
37852;BME280;23691;52.486;4.650;2023-07-16T12:40:13;101239.13;;;27.00;38.67
37852;BME280;23691;52.486;4.650;2023-07-16T12:42:38;101230.59;;;27.02;38.06
37852;BME280;23691;52.486;4.650;2023-07-16T12:45:04;101244.63;;;27.05;37.83
37852;BME280;23691;52.486;4.650;2023-07-16T12:47:29;101262.00;;;27.16;37.42
37852;BME280;23691;52.486;4.650;2023-07-16T12:49:55;101245.31;;;27.23;37.27
37852;BME280;23691;52.486;4.650;2023-07-16T12:52:20;101247.00;;;27.34;37.08
37852;BME280;23691;52.486;4.650;2023-07-16T12:54:45;101242.91;;;27.41;37.28
37852;BME280;23691;52.486;4.650;2023-07-16T12:57:11;101243.81;;;27.52;36.81
37852;BME280;23691;52.486;4.650;2023-07-16T12:59:36;101253.16;;;27.61;36.56